createdAt,value
2022-11-03T00:01:48.154Z,14.58
2022-11-03T00:04:16.709Z,14.36
2022-11-03T00:06:45.073Z,14.37
2022-11-03T00:09:14.396Z,14.14
2022-11-03T00:12:03.189Z,14.70
2022-11-03T00:14:43.784Z,14.33
2022-11-03T00:17:11.001Z,14.50
2022-11-03T00:19:38.227Z,14.58
2022-11-03T00:22:05.231Z,14.43
2022-11-03T00:24:32.238Z,14.74
2022-11-03T00:26:59.197Z,14.47
2022-11-03T00:29:46.168Z,14.96
2022-11-03T00:32:32.890Z,14.79
2022-11-03T00:34:59.814Z,14.96
2022-11-03T00:37:26.903Z,14.53
2022-11-03T00:39:53.891Z,14.81
2022-11-03T00:42:20.847Z,14.82
2022-11-03T00:44:47.825Z,14.62
2022-11-03T00:47:16.120Z,15.07
2022-11-03T00:49:43.945Z,15.08
2022-11-03T00:52:10.873Z,14.79
2022-11-03T00:54:37.809Z,14.98
2022-11-03T00:57:04.800Z,14.66
2022-11-03T00:59:52.179Z,14.95
2022-11-03T01:02:53.159Z,15.10
2022-11-03T01:06:13.227Z,15.26
2022-11-03T01:08:54.303Z,14.92
2022-11-03T01:11:53.191Z,15.13
2022-11-03T01:14:45.649Z,14.85
2022-11-03T01:17:21.124Z,15.33
2022-11-03T01:19:48.818Z,15.20
2022-11-03T01:22:16.968Z,15.08
2022-11-03T01:24:44.822Z,15.27
2022-11-03T01:27:18.757Z,15.04
2022-11-03T01:29:45.777Z,14.87
2022-11-03T01:32:33.204Z,15.02
2022-11-03T01:35:13.987Z,15.03
2022-11-03T01:37:41.018Z,15.15
2022-11-03T01:40:09.206Z,15.15
2022-11-03T01:42:36.261Z,14.91
2022-11-03T01:45:03.204Z,14.73
2022-11-03T01:47:34.470Z,15.15
2022-11-03T01:50:16.334Z,15.06
2022-11-03T01:52:56.221Z,15.21
2022-11-03T01:55:28.477Z,15.07
2022-11-03T01:58:04.567Z,14.57
2022-11-03T02:00:52.309Z,15.03
2022-11-03T02:03:57.221Z,15.20
2022-11-03T02:06:58.220Z,14.98
2022-11-03T02:09:33.724Z,15.09
2022-11-03T02:12:35.244Z,15.25
2022-11-03T02:15:37.200Z,15.10
2022-11-03T02:18:21.708Z,14.95
2022-11-03T02:20:58.780Z,14.84
2022-11-03T02:23:39.996Z,15.06
2022-11-03T02:26:10.252Z,15.11
2022-11-03T02:28:47.035Z,14.60
2022-11-03T02:31:24.316Z,14.58
2022-11-03T02:34:35.297Z,14.40
2022-11-03T02:37:25.846Z,15.10
2022-11-03T02:40:02.765Z,15.11
2022-11-03T02:42:31.646Z,14.54
2022-11-03T02:45:02.636Z,15.22
2022-11-03T02:47:31.653Z,14.94
2022-11-03T02:49:58.795Z,15.09
2022-11-03T02:52:39.479Z,15.15
2022-11-03T02:55:18.019Z,14.95
2022-11-03T02:58:00.430Z,15.06
2022-11-03T03:00:31.714Z,14.64
2022-11-03T03:03:26.252Z,14.17
2022-11-03T03:06:40.247Z,14.48
2022-11-03T03:10:29.264Z,14.77
2022-11-03T03:13:32.257Z,15.10
2022-11-03T03:16:21.473Z,15.12
2022-11-03T03:19:02.113Z,15.02
2022-11-03T03:21:40.914Z,15.12
2022-11-03T03:24:15.833Z,14.91
2022-11-03T03:26:49.637Z,14.97
2022-11-03T03:29:28.382Z,15.12
2022-11-03T03:31:59.281Z,15.12
2022-11-03T03:34:36.244Z,15.06
2022-11-03T03:37:06.621Z,15.14
2022-11-03T03:39:57.279Z,15.27
2022-11-03T03:42:40.277Z,15.22
2022-11-03T03:45:10.162Z,15.26
2022-11-03T03:47:37.312Z,14.93
2022-11-03T03:50:04.733Z,14.89
2022-11-03T03:52:34.869Z,14.84
2022-11-03T03:55:01.978Z,14.86
2022-11-03T03:57:31.783Z,15.09
2022-11-03T03:59:58.659Z,13.65
2022-11-03T04:02:25.784Z,15.03
2022-11-03T04:04:52.785Z,14.63
2022-11-03T04:07:42.511Z,14.93
2022-11-03T04:10:34.297Z,14.87
2022-11-03T04:13:53.316Z,14.82
2022-11-03T04:16:52.674Z,14.77
2022-11-03T04:19:38.042Z,14.85
2022-11-03T04:22:16.922Z,14.94
2022-11-03T04:24:51.860Z,14.87
2022-11-03T04:27:18.890Z,15.12
2022-11-03T04:30:06.332Z,15.05
2022-11-03T04:32:48.584Z,15.09
2022-11-03T04:35:22.401Z,15.03
2022-11-03T04:37:55.557Z,14.62
2022-11-03T04:40:22.822Z,14.67
2022-11-03T04:42:50.084Z,14.24
2022-11-03T04:45:31.257Z,14.86
2022-11-03T04:48:02.168Z,14.67
2022-11-03T04:50:29.144Z,14.85
2022-11-03T04:52:58.328Z,15.04
2022-11-03T04:55:26.690Z,14.68
2022-11-03T04:58:05.052Z,14.87
2022-11-03T05:00:32.116Z,14.93
2022-11-03T05:02:59.119Z,14.55
2022-11-03T05:05:26.820Z,14.86
2022-11-03T05:07:59.199Z,14.75
2022-11-03T05:10:46.372Z,14.78
2022-11-03T05:13:47.326Z,14.53
2022-11-03T05:16:28.713Z,14.88
2022-11-03T05:18:56.653Z,14.61
2022-11-03T05:21:27.043Z,14.85
2022-11-03T05:23:58.344Z,14.81
2022-11-03T05:26:48.423Z,14.81
2022-11-03T05:29:38.810Z,14.73
2022-11-03T05:32:14.901Z,14.88
2022-11-03T05:34:44.062Z,14.49
2022-11-03T05:37:27.056Z,14.92
2022-11-03T05:39:59.387Z,14.97
2022-11-03T05:42:51.441Z,14.91
2022-11-03T05:45:34.398Z,15.11
2022-11-03T05:48:03.707Z,14.88
2022-11-03T05:50:35.787Z,14.78
2022-11-03T05:53:25.801Z,14.86
2022-11-03T05:55:53.694Z,14.47
2022-11-03T05:58:38.434Z,14.59
2022-11-03T06:01:17.068Z,14.55
2022-11-03T06:03:44.579Z,14.02
2022-11-03T06:06:35.058Z,14.26
2022-11-03T06:09:09.486Z,14.53
2022-11-03T06:11:57.374Z,14.51
2022-11-03T06:14:58.452Z,13.92
2022-11-03T06:17:39.312Z,14.62
2022-11-03T06:20:09.334Z,13.79
2022-11-03T06:22:56.616Z,14.45
2022-11-03T06:25:57.436Z,13.95
2022-11-03T06:28:40.331Z,14.75
2022-11-03T06:31:22.038Z,13.95
2022-11-03T06:33:53.206Z,14.29
2022-11-03T06:36:23.382Z,14.32
2022-11-03T06:39:09.846Z,14.61
2022-11-03T06:41:37.227Z,14.53
2022-11-03T06:44:41.394Z,14.18
2022-11-03T06:47:25.439Z,14.38
2022-11-03T06:50:13.483Z,14.41
2022-11-03T06:52:54.919Z,14.41
2022-11-03T06:55:40.630Z,14.53
2022-11-03T06:58:30.914Z,14.54
2022-11-03T07:01:35.564Z,14.62
2022-11-03T07:04:22.366Z,14.46
2022-11-03T07:06:53.188Z,14.51
2022-11-03T07:09:26.048Z,14.44
2022-11-03T07:12:14.582Z,14.59
2022-11-03T07:14:55.192Z,14.36
2022-11-03T07:17:24.198Z,14.23
2022-11-03T07:19:51.247Z,14.42
2022-11-03T07:22:22.874Z,14.68
2022-11-03T07:24:56.798Z,14.88
2022-11-03T07:27:28.800Z,14.64
2022-11-03T07:30:20.793Z,14.52
2022-11-03T07:32:50.941Z,14.67
2022-11-03T07:35:18.093Z,14.61
2022-11-03T07:37:46.822Z,14.50
2022-11-03T07:40:18.490Z,14.34
2022-11-03T07:42:45.501Z,14.24
2022-11-03T07:45:41.452Z,14.59
2022-11-03T07:48:50.466Z,14.56
2022-11-03T07:51:37.535Z,14.47
2022-11-03T07:54:34.472Z,14.70
2022-11-03T07:57:35.377Z,14.74
2022-11-03T08:00:29.461Z,14.83
2022-11-03T08:03:25.344Z,14.68
2022-11-03T08:05:52.220Z,14.44
2022-11-03T08:08:19.321Z,14.96
2022-11-03T08:11:06.545Z,14.58
2022-11-03T08:13:47.112Z,14.88
2022-11-03T08:16:14.315Z,14.85
2022-11-03T08:18:41.512Z,14.78
2022-11-03T08:21:28.473Z,14.90
2022-11-03T08:24:09.476Z,14.79
2022-11-03T08:26:56.441Z,15.26
2022-11-03T08:29:37.014Z,14.93
2022-11-03T08:32:04.220Z,15.11
2022-11-03T08:34:31.279Z,15.48
2022-11-03T08:36:58.370Z,15.63
2022-11-03T08:39:25.374Z,15.56
2022-11-03T08:41:52.476Z,16.03
2022-11-03T08:44:39.472Z,15.83
2022-11-03T08:47:20.127Z,16.00
2022-11-03T08:50:00.499Z,16.00
2022-11-03T08:53:01.489Z,15.98
2022-11-03T08:55:42.022Z,16.11
2022-11-03T08:58:09.943Z,15.75
2022-11-03T09:00:57.557Z,15.62
2022-11-03T09:03:58.591Z,16.19
2022-11-03T09:06:39.268Z,15.93
2022-11-03T09:12:13.517Z,16.31
2022-11-03T09:15:14.683Z,16.02
2022-11-03T09:18:15.632Z,16.14
2022-11-03T09:20:56.354Z,16.14
2022-11-03T09:23:23.293Z,15.78
2022-11-03T09:25:50.645Z,15.94
2022-11-03T09:28:18.262Z,15.47
2022-11-03T09:30:45.236Z,15.05
2022-11-03T09:33:12.287Z,15.34
2022-11-03T09:35:39.524Z,15.35
2022-11-03T09:38:08.228Z,15.04
2022-11-03T09:40:36.395Z,14.90
2022-11-03T09:43:03.889Z,14.49
2022-11-03T09:45:32.134Z,14.60
2022-11-03T09:47:59.592Z,14.65
2022-11-03T09:50:39.894Z,14.11
2022-11-03T09:53:33.506Z,14.00
2022-11-03T09:56:36.487Z,14.43
2022-11-03T09:59:37.535Z,14.16
2022-11-03T10:02:39.964Z,14.63
2022-11-03T10:05:25.677Z,14.86
2022-11-03T10:08:05.116Z,14.39
2022-11-03T10:10:53.523Z,14.74
2022-11-03T10:13:39.025Z,14.20
2022-11-03T10:16:12.106Z,15.09
2022-11-03T10:18:39.233Z,15.54
2022-11-03T10:21:31.546Z,15.80
2022-11-03T10:24:13.604Z,15.71
2022-11-03T10:26:48.315Z,16.18
2022-11-03T10:29:22.415Z,16.50
2022-11-03T10:31:52.041Z,16.19
2022-11-03T10:34:39.334Z,16.04
2022-11-03T10:37:29.513Z,15.85
2022-11-03T10:40:47.917Z,15.41
2022-11-03T10:43:15.665Z,15.47
2022-11-03T10:45:42.765Z,15.15
2022-11-03T10:48:11.458Z,15.49
2022-11-03T10:50:42.215Z,15.50
2022-11-03T10:53:20.738Z,15.43
2022-11-03T10:55:47.945Z,16.10
2022-11-03T10:58:15.135Z,16.37
2022-11-03T11:01:02.580Z,16.03
2022-11-03T11:04:03.650Z,16.01
2022-11-03T11:07:04.574Z,16.69
2022-11-03T11:10:07.599Z,16.25
2022-11-03T11:13:23.269Z,16.45
2022-11-03T11:16:05.599Z,16.39
2022-11-03T11:18:46.242Z,15.92
2022-11-03T11:21:16.445Z,15.96
2022-11-03T11:23:44.689Z,15.72
2022-11-03T11:26:27.030Z,16.07
2022-11-03T11:29:15.862Z,16.30
2022-11-03T11:31:44.439Z,16.75
2022-11-03T11:34:12.417Z,17.07
2022-11-03T11:36:42.095Z,16.74
2022-11-03T11:39:42.650Z,16.68
2022-11-03T11:42:23.244Z,17.20
2022-11-03T11:44:50.785Z,17.57
2022-11-03T11:47:24.146Z,17.80
2022-11-03T11:50:15.567Z,17.54
2022-11-03T11:52:58.812Z,17.33
2022-11-03T11:55:50.576Z,17.50
2022-11-03T11:58:51.074Z,17.75
2022-11-03T12:01:45.665Z,18.06
2022-11-03T12:04:49.584Z,18.38
2022-11-03T12:07:50.633Z,18.38
2022-11-03T12:10:51.662Z,18.35
2022-11-03T12:13:57.559Z,18.75
2022-11-03T12:16:38.247Z,18.65
2022-11-03T12:19:34.606Z,18.64
2022-11-03T12:22:02.796Z,18.19
2022-11-03T12:24:52.648Z,18.08
2022-11-03T12:27:34.519Z,18.81
2022-11-03T12:30:09.069Z,18.87
2022-11-03T12:32:58.669Z,19.29
2022-11-03T12:35:47.013Z,19.53
2022-11-03T12:38:16.762Z,20.01
2022-11-03T12:40:53.889Z,19.49
2022-11-03T12:43:24.262Z,19.80
2022-11-03T12:45:51.325Z,19.67
2022-11-03T12:48:27.605Z,18.84
2022-11-03T12:50:54.617Z,18.69
2022-11-03T12:53:21.491Z,18.24
2022-11-03T12:55:48.605Z,18.09
2022-11-03T12:58:28.783Z,18.96
2022-11-03T13:01:29.693Z,18.62
2022-11-03T13:04:30.669Z,18.04
2022-11-03T13:07:11.401Z,18.13
2022-11-03T13:09:45.616Z,18.25
2022-11-03T13:12:47.607Z,18.24
2022-11-03T13:15:18.485Z,18.18
2022-11-03T13:18:11.749Z,18.48
2022-11-03T13:20:34.282Z,18.02
2022-11-03T13:23:02.012Z,18.08
2022-11-03T13:25:49.698Z,17.68
2022-11-03T13:28:30.253Z,17.71
2022-11-03T13:30:57.097Z,17.45
2022-11-03T13:33:24.277Z,17.60
2022-11-03T13:35:51.481Z,16.67
2022-11-03T13:38:18.747Z,17.28
2022-11-03T13:41:08.151Z,17.27
2022-11-03T13:43:33.154Z,17.27
2022-11-03T13:46:02.619Z,17.22
2022-11-03T13:49:43.907Z,17.25
2022-11-03T13:52:10.646Z,16.88
2022-11-03T14:05:14.800Z,17.74
2022-11-03T14:08:15.883Z,17.84
2022-11-03T14:11:34.652Z,17.90
2022-11-03T14:14:15.434Z,18.02
2022-11-03T14:16:42.819Z,17.52
2022-11-03T14:19:10.082Z,17.50
2022-11-03T14:21:57.855Z,17.50
2022-11-03T14:24:38.216Z,17.59
2022-11-03T14:27:05.491Z,17.91
2022-11-03T14:29:32.743Z,17.87
2022-11-03T14:32:19.769Z,17.96
2022-11-03T14:35:00.473Z,18.00
2022-11-03T14:37:28.888Z,17.31
2022-11-03T14:39:56.018Z,17.64
2022-11-03T14:42:23.301Z,16.91
2022-11-03T14:44:50.631Z,16.82
2022-11-03T14:47:37.671Z,17.50
2022-11-03T14:50:38.758Z,17.17
2022-11-03T14:53:39.672Z,16.94
2022-11-03T14:56:40.733Z,16.88
2022-11-03T14:59:41.672Z,16.44
2022-11-03T15:02:50.683Z,16.64
2022-11-03T15:05:51.723Z,15.82
2022-11-03T15:08:26.957Z,15.98
2022-11-03T15:11:14.699Z,15.93
2022-11-03T15:14:15.720Z,16.37
2022-11-03T15:16:56.275Z,16.02
2022-11-03T15:19:23.451Z,16.28
2022-11-03T15:21:51.339Z,16.09
2022-11-03T15:27:05.435Z,16.20
2022-11-03T15:30:01.785Z,16.12
2022-11-03T15:33:02.102Z,16.16
2022-11-03T15:35:42.409Z,15.52
2022-11-03T15:38:09.686Z,16.10
2022-11-03T15:40:36.810Z,15.82
2022-11-03T15:43:06.105Z,15.81
2022-11-03T15:45:33.597Z,16.28
2022-11-03T15:48:21.913Z,16.07
2022-11-03T15:51:23.753Z,15.94
2022-11-03T15:54:04.443Z,15.60
2022-11-03T15:56:31.502Z,15.53
2022-11-03T15:58:58.613Z,16.11
2022-11-03T16:01:49.871Z,15.80
2022-11-03T16:04:50.788Z,15.93
2022-11-03T16:07:51.733Z,16.07
2022-11-03T16:10:57.626Z,16.00
2022-11-03T16:13:42.072Z,15.82
2022-11-03T16:16:10.134Z,16.00
2022-11-03T16:18:38.268Z,15.93
2022-11-03T16:21:05.583Z,15.99
2022-11-03T16:23:32.549Z,16.16
2022-11-03T16:25:59.754Z,15.77
2022-11-03T16:28:26.696Z,15.97
2022-11-03T16:30:54.730Z,15.77
2022-11-03T16:33:41.754Z,15.70
2022-11-03T16:36:42.758Z,15.70
2022-11-03T16:39:23.892Z,15.53
2022-11-03T16:42:11.872Z,15.39
2022-11-03T16:44:52.352Z,15.61
2022-11-03T16:47:19.599Z,15.37
2022-11-03T16:49:46.638Z,15.04
2022-11-03T16:52:13.811Z,15.35
2022-11-03T16:54:40.792Z,15.21
2022-11-03T16:57:27.847Z,15.28
2022-11-03T17:00:33.748Z,15.24
2022-11-03T17:03:27.990Z,14.65
2022-11-03T17:06:21.867Z,15.14
2022-11-03T17:09:02.908Z,14.70
2022-11-03T17:11:49.752Z,14.64
2022-11-03T17:14:54.032Z,14.85
2022-11-03T17:17:37.912Z,14.91
2022-11-03T17:20:06.065Z,14.87
2022-11-03T17:22:33.194Z,15.09
2022-11-03T17:25:01.785Z,14.87
2022-11-03T17:27:38.354Z,15.09
2022-11-03T17:30:08.995Z,14.58
2022-11-03T17:32:39.095Z,15.11
2022-11-03T17:35:38.704Z,15.11
2022-11-03T17:38:13.639Z,14.91
2022-11-03T17:40:46.199Z,14.44
2022-11-03T17:43:25.473Z,14.71
2022-11-03T17:46:12.866Z,14.67
2022-11-03T17:49:13.825Z,14.49
2022-11-03T17:51:56.302Z,14.80
2022-11-03T17:54:24.368Z,14.76
2022-11-03T17:57:13.800Z,14.90
2022-11-03T18:00:14.840Z,14.79
2022-11-03T18:03:15.877Z,14.71
2022-11-03T18:05:56.463Z,14.73
2022-11-03T18:08:43.807Z,14.53
2022-11-03T18:12:03.786Z,14.48
2022-11-03T18:15:04.832Z,14.41
2022-11-03T18:18:06.007Z,14.65
2022-11-03T18:20:53.142Z,14.49
2022-11-03T18:23:23.565Z,14.66
2022-11-03T18:25:51.252Z,14.34
2022-11-03T18:28:18.857Z,14.61
2022-11-03T18:30:48.522Z,14.61
2022-11-03T18:33:21.042Z,14.56
2022-11-03T18:35:48.620Z,13.98
2022-11-03T18:38:17.176Z,14.59
2022-11-03T18:40:44.801Z,14.58
2022-11-03T18:43:13.928Z,14.54
2022-11-03T18:45:41.005Z,14.57
2022-11-03T18:48:28.895Z,14.51
2022-11-03T18:51:29.825Z,13.89
2022-11-03T18:54:14.688Z,14.03
2022-11-03T18:56:42.069Z,14.42
2022-11-03T18:59:31.874Z,14.10
2022-11-03T19:02:35.949Z,14.44
2022-11-03T19:05:12.384Z,14.19
2022-11-03T19:07:42.502Z,14.37
2022-11-03T19:10:34.870Z,14.41
2022-11-03T19:13:42.954Z,14.38
2022-11-03T19:17:01.977Z,14.05
2022-11-03T19:19:46.465Z,14.26
2022-11-03T19:22:19.161Z,14.36
2022-11-03T19:25:05.874Z,13.96
2022-11-03T19:27:48.631Z,14.33
2022-11-03T19:30:35.849Z,14.29
2022-11-03T19:33:40.918Z,14.25
2022-11-03T19:36:21.842Z,14.33
2022-11-03T19:39:08.934Z,14.37
2022-11-03T19:42:31.849Z,14.26
2022-11-03T19:45:18.819Z,14.24
2022-11-03T19:48:18.349Z,14.13
2022-11-03T19:50:40.547Z,14.24
2022-11-03T19:53:07.634Z,14.25
2022-11-03T19:55:55.970Z,14.27
2022-11-03T19:58:56.885Z,14.27
2022-11-03T20:01:57.921Z,14.33
2022-11-03T20:04:58.896Z,14.22
2022-11-03T20:07:55.881Z,14.22
2022-11-03T20:10:56.902Z,14.23
2022-11-03T20:13:41.859Z,14.20
2022-11-03T20:16:12.771Z,14.23
2022-11-03T20:18:40.436Z,14.19
2022-11-03T20:21:34.472Z,14.23
2022-11-03T20:24:16.415Z,14.26
2022-11-03T20:26:43.463Z,14.20
2022-11-03T20:29:14.091Z,14.25
2022-11-03T20:31:54.100Z,14.21
2022-11-03T20:34:34.558Z,14.24
2022-11-03T20:37:04.678Z,14.32
2022-11-03T20:39:32.758Z,14.30
2022-11-03T20:41:59.942Z,14.30
2022-11-03T20:44:26.789Z,14.23
2022-11-03T20:46:54.179Z,14.16
2022-11-03T20:49:21.751Z,14.17
2022-11-03T20:52:08.932Z,14.19
2022-11-03T20:54:51.147Z,14.25
2022-11-03T20:57:19.004Z,14.15
2022-11-03T21:00:05.912Z,14.17
2022-11-03T21:03:08.103Z,14.17
2022-11-03T21:05:51.396Z,14.23
2022-11-03T21:08:38.897Z,14.24
2022-11-03T21:11:41.913Z,14.27
2022-11-03T21:14:26.443Z,14.24
2022-11-03T21:17:11.968Z,14.20
2022-11-03T21:19:57.518Z,14.29
2022-11-03T21:25:40.911Z,14.23
2022-11-03T21:28:41.937Z,14.18
2022-11-03T21:31:22.341Z,14.12
2022-11-03T21:33:49.237Z,14.15
2022-11-03T21:36:16.018Z,14.12
2022-11-03T21:39:03.065Z,14.14
2022-11-03T21:42:21.975Z,14.10
2022-11-03T21:45:22.925Z,14.08
2022-11-03T21:48:22.739Z,14.06
2022-11-03T21:50:49.939Z,14.14
2022-11-03T21:53:16.931Z,14.16
2022-11-03T21:56:03.987Z,14.13
2022-11-03T21:58:44.752Z,14.15
2022-11-03T22:01:32.100Z,14.11
2022-11-03T22:04:32.930Z,14.17
2022-11-03T22:07:13.491Z,14.12
2022-11-03T22:09:40.270Z,14.12
2022-11-03T22:12:07.193Z,14.19
2022-11-03T22:14:58.961Z,14.15
2022-11-03T22:17:59.971Z,14.15
2022-11-03T22:20:48.724Z,14.08
2022-11-03T22:23:34.482Z,14.09
2022-11-03T22:26:20.156Z,14.08
2022-11-03T22:29:07.013Z,14.09
2022-11-03T22:31:43.000Z,14.05
2022-11-03T22:34:47.969Z,14.16
2022-11-03T22:40:13.794Z,14.13
2022-11-03T22:42:59.343Z,14.17
2022-11-03T22:45:46.405Z,14.16
2022-11-03T22:48:13.470Z,14.17
2022-11-03T22:50:40.253Z,14.19
2022-11-03T22:53:26.941Z,14.21
2022-11-03T22:55:53.948Z,14.18
2022-11-03T22:58:20.697Z,14.17
2022-11-03T23:01:08.277Z,14.21
2022-11-03T23:04:08.990Z,14.22
2022-11-03T23:07:09.987Z,14.21
2022-11-03T23:09:50.382Z,14.15
2022-11-03T23:12:17.192Z,14.15
2022-11-03T23:15:02.708Z,14.17
2022-11-03T23:17:54.943Z,14.20
2022-11-03T23:21:13.995Z,14.17
2022-11-03T23:24:14.165Z,14.15
2022-11-03T23:26:41.273Z,14.12
2022-11-03T23:29:08.417Z,14.14
2022-11-03T23:31:36.073Z,14.10
2022-11-03T23:34:03.500Z,14.11
2022-11-03T23:36:31.099Z,14.14
2022-11-03T23:38:58.289Z,14.10
2022-11-03T23:41:25.930Z,14.16
2022-11-03T23:44:13.005Z,14.13
2022-11-03T23:47:32.030Z,14.16
2022-11-03T23:50:33.961Z,14.19
2022-11-03T23:53:28.201Z,14.14
2022-11-03T23:56:13.631Z,14.15
2022-11-03T23:58:40.396Z,14.15
